sensor_id;sensor_type;location;lat;lon;timestamp;P1;durP1;ratioP1;P2;durP2;ratioP2
67456;SDS011;54319;52.038;4.640;2022-10-18T00:00:04;10.63;;;7.23;;
67456;SDS011;54319;52.038;4.640;2022-10-18T00:02:32;14.95;;;7.22;;
67456;SDS011;54319;52.038;4.640;2022-10-18T00:04:59;12.70;;;7.63;;
67456;SDS011;54319;52.038;4.640;2022-10-18T00:07:27;12.85;;;7.10;;
67456;SDS011;54319;52.038;4.640;2022-10-18T00:09:54;12.93;;;7.30;;
67456;SDS011;54319;52.038;4.640;2022-10-18T00:12:21;11.68;;;7.18;;
67456;SDS011;54319;52.038;4.640;2022-10-18T00:14:48;12.32;;;7.53;;
67456;SDS011;54319;52.038;4.640;2022-10-18T00:17:15;13.38;;;7.25;;
67456;SDS011;54319;52.038;4.640;2022-10-18T00:19:42;11.77;;;6.95;;
67456;SDS011;54319;52.038;4.640;2022-10-18T00:22:10;14.60;;;7.18;;
67456;SDS011;54319;52.038;4.640;2022-10-18T00:27:05;12.45;;;6.93;;
67456;SDS011;54319;52.038;4.640;2022-10-18T00:29:32;13.45;;;7.43;;
67456;SDS011;54319;52.038;4.640;2022-10-18T00:31:59;15.05;;;7.63;;
67456;SDS011;54319;52.038;4.640;2022-10-18T00:34:26;15.88;;;7.70;;
67456;SDS011;54319;52.038;4.640;2022-10-18T00:36:58;12.68;;;7.47;;
67456;SDS011;54319;52.038;4.640;2022-10-18T00:39:25;14.88;;;7.78;;
67456;SDS011;54319;52.038;4.640;2022-10-18T00:41:53;18.13;;;7.53;;
67456;SDS011;54319;52.038;4.640;2022-10-18T00:47:37;10.30;;;7.05;;
67456;SDS011;54319;52.038;4.640;2022-10-18T00:50:04;15.20;;;7.40;;
67456;SDS011;54319;52.038;4.640;2022-10-18T00:52:34;12.02;;;6.90;;
67456;SDS011;54319;52.038;4.640;2022-10-18T00:55:06;16.70;;;7.25;;
67456;SDS011;54319;52.038;4.640;2022-10-18T00:57:35;12.65;;;6.93;;
67456;SDS011;54319;52.038;4.640;2022-10-18T01:00:03;11.13;;;7.32;;
67456;SDS011;54319;52.038;4.640;2022-10-18T01:02:34;15.80;;;7.68;;
67456;SDS011;54319;52.038;4.640;2022-10-18T01:05:01;14.23;;;7.20;;
67456;SDS011;54319;52.038;4.640;2022-10-18T01:07:33;13.02;;;7.50;;
67456;SDS011;54319;52.038;4.640;2022-10-18T01:10:23;13.50;;;7.80;;
67456;SDS011;54319;52.038;4.640;2022-10-18T01:13:01;17.05;;;7.93;;
67456;SDS011;54319;52.038;4.640;2022-10-18T01:15:47;12.90;;;7.60;;
67456;SDS011;54319;52.038;4.640;2022-10-18T01:18:20;10.82;;;7.25;;
67456;SDS011;54319;52.038;4.640;2022-10-18T01:20:56;16.48;;;7.60;;
67456;SDS011;54319;52.038;4.640;2022-10-18T01:23:39;16.80;;;8.00;;
67456;SDS011;54319;52.038;4.640;2022-10-18T01:26:34;17.20;;;7.50;;
67456;SDS011;54319;52.038;4.640;2022-10-18T01:29:15;14.70;;;7.80;;
67456;SDS011;54319;52.038;4.640;2022-10-18T01:31:52;18.70;;;8.63;;
67456;SDS011;54319;52.038;4.640;2022-10-18T01:34:26;12.52;;;7.85;;
67456;SDS011;54319;52.038;4.640;2022-10-18T01:36:56;16.70;;;8.25;;
67456;SDS011;54319;52.038;4.640;2022-10-18T01:39:28;13.90;;;7.65;;
67456;SDS011;54319;52.038;4.640;2022-10-18T01:41:59;12.57;;;7.18;;
67456;SDS011;54319;52.038;4.640;2022-10-18T01:44:30;13.20;;;7.63;;
67456;SDS011;54319;52.038;4.640;2022-10-18T01:46:59;18.50;;;8.00;;
67456;SDS011;54319;52.038;4.640;2022-10-18T01:49:27;16.08;;;6.93;;
67456;SDS011;54319;52.038;4.640;2022-10-18T01:51:53;11.82;;;7.30;;
67456;SDS011;54319;52.038;4.640;2022-10-18T01:54:21;15.05;;;7.45;;
67456;SDS011;54319;52.038;4.640;2022-10-18T01:56:55;15.02;;;7.70;;
67456;SDS011;54319;52.038;4.640;2022-10-18T01:59:31;15.23;;;8.02;;
67456;SDS011;54319;52.038;4.640;2022-10-18T02:02:08;19.13;;;7.93;;
67456;SDS011;54319;52.038;4.640;2022-10-18T02:04:45;18.33;;;7.88;;
67456;SDS011;54319;52.038;4.640;2022-10-18T02:07:20;19.52;;;7.97;;
67456;SDS011;54319;52.038;4.640;2022-10-18T02:09:55;17.98;;;8.05;;
67456;SDS011;54319;52.038;4.640;2022-10-18T02:12:28;18.58;;;8.32;;
67456;SDS011;54319;52.038;4.640;2022-10-18T02:14:58;17.15;;;8.43;;
67456;SDS011;54319;52.038;4.640;2022-10-18T02:17:29;18.33;;;8.77;;
67456;SDS011;54319;52.038;4.640;2022-10-18T02:19:57;21.25;;;8.52;;
67456;SDS011;54319;52.038;4.640;2022-10-18T02:22:28;24.50;;;8.50;;
67456;SDS011;54319;52.038;4.640;2022-10-18T02:24:58;17.20;;;8.65;;
67456;SDS011;54319;52.038;4.640;2022-10-18T02:27:30;23.65;;;8.10;;
67456;SDS011;54319;52.038;4.640;2022-10-18T02:29:57;12.60;;;7.68;;
67456;SDS011;54319;52.038;4.640;2022-10-18T02:34:56;16.33;;;7.70;;
67456;SDS011;54319;52.038;4.640;2022-10-18T02:37:26;26.83;;;8.23;;
67456;SDS011;54319;52.038;4.640;2022-10-18T02:39:55;15.15;;;7.65;;
67456;SDS011;54319;52.038;4.640;2022-10-18T02:42:22;16.20;;;7.35;;
67456;SDS011;54319;52.038;4.640;2022-10-18T02:47:16;10.47;;;6.90;;
67456;SDS011;54319;52.038;4.640;2022-10-18T02:49:44;16.38;;;7.47;;
67456;SDS011;54319;52.038;4.640;2022-10-18T02:52:12;15.52;;;6.88;;
67456;SDS011;54319;52.038;4.640;2022-10-18T02:54:39;15.85;;;6.55;;
67456;SDS011;54319;52.038;4.640;2022-10-18T02:57:05;13.07;;;7.25;;
67456;SDS011;54319;52.038;4.640;2022-10-18T02:59:32;11.10;;;6.55;;
67456;SDS011;54319;52.038;4.640;2022-10-18T03:01:59;10.05;;;6.07;;
67456;SDS011;54319;52.038;4.640;2022-10-18T03:06:54;9.82;;;5.97;;
67456;SDS011;54319;52.038;4.640;2022-10-18T03:09:23;9.32;;;6.05;;
67456;SDS011;54319;52.038;4.640;2022-10-18T03:11:49;8.85;;;5.75;;
67456;SDS011;54319;52.038;4.640;2022-10-18T03:14:16;11.52;;;6.03;;
67456;SDS011;54319;52.038;4.640;2022-10-18T03:16:43;10.93;;;6.10;;
67456;SDS011;54319;52.038;4.640;2022-10-18T03:19:10;10.02;;;6.25;;
67456;SDS011;54319;52.038;4.640;2022-10-18T03:21:36;13.25;;;6.80;;
67456;SDS011;54319;52.038;4.640;2022-10-18T03:24:05;13.63;;;6.63;;
67456;SDS011;54319;52.038;4.640;2022-10-18T03:26:33;23.70;;;6.93;;
67456;SDS011;54319;52.038;4.640;2022-10-18T03:29:00;16.80;;;6.57;;
67456;SDS011;54319;52.038;4.640;2022-10-18T03:31:26;18.25;;;6.38;;
67456;SDS011;54319;52.038;4.640;2022-10-18T03:33:54;16.95;;;6.30;;
67456;SDS011;54319;52.038;4.640;2022-10-18T03:36:23;6.68;;;4.90;;
67456;SDS011;54319;52.038;4.640;2022-10-18T03:38:50;17.48;;;6.18;;
67456;SDS011;54319;52.038;4.640;2022-10-18T03:41:17;21.00;;;6.40;;
67456;SDS011;54319;52.038;4.640;2022-10-18T03:43:46;41.33;;;7.57;;
67456;SDS011;54319;52.038;4.640;2022-10-18T03:46:13;11.65;;;6.60;;
67456;SDS011;54319;52.038;4.640;2022-10-18T03:48:40;16.58;;;6.07;;
67456;SDS011;54319;52.038;4.640;2022-10-18T03:51:07;9.43;;;6.28;;
67456;SDS011;54319;52.038;4.640;2022-10-18T03:53:34;9.43;;;5.85;;
67456;SDS011;54319;52.038;4.640;2022-10-18T03:56:01;17.83;;;5.85;;
67456;SDS011;54319;52.038;4.640;2022-10-18T03:58:28;11.65;;;5.57;;
67456;SDS011;54319;52.038;4.640;2022-10-18T04:00:56;7.87;;;5.70;;
67456;SDS011;54319;52.038;4.640;2022-10-18T04:03:24;7.88;;;5.28;;
67456;SDS011;54319;52.038;4.640;2022-10-18T04:05:50;11.65;;;5.55;;
67456;SDS011;54319;52.038;4.640;2022-10-18T04:08:17;9.52;;;5.57;;
67456;SDS011;54319;52.038;4.640;2022-10-18T04:10:44;7.78;;;5.45;;
67456;SDS011;54319;52.038;4.640;2022-10-18T04:15:38;6.88;;;5.13;;
67456;SDS011;54319;52.038;4.640;2022-10-18T04:18:07;11.45;;;5.72;;
67456;SDS011;54319;52.038;4.640;2022-10-18T04:20:34;8.25;;;6.00;;
67456;SDS011;54319;52.038;4.640;2022-10-18T04:23:02;11.77;;;5.40;;
67456;SDS011;54319;52.038;4.640;2022-10-18T04:25:28;8.10;;;5.18;;
67456;SDS011;54319;52.038;4.640;2022-10-18T04:27:55;9.68;;;5.47;;
67456;SDS011;54319;52.038;4.640;2022-10-18T04:30:22;14.90;;;5.68;;
67456;SDS011;54319;52.038;4.640;2022-10-18T04:32:49;7.47;;;5.25;;
67456;SDS011;54319;52.038;4.640;2022-10-18T04:35:17;8.02;;;5.10;;
67456;SDS011;54319;52.038;4.640;2022-10-18T04:37:48;5.78;;;4.75;;
67456;SDS011;54319;52.038;4.640;2022-10-18T04:40:18;9.23;;;5.22;;
67456;SDS011;54319;52.038;4.640;2022-10-18T04:42:48;10.43;;;5.72;;
67456;SDS011;54319;52.038;4.640;2022-10-18T04:45:19;7.70;;;5.78;;
67456;SDS011;54319;52.038;4.640;2022-10-18T04:47:46;8.00;;;5.68;;
67456;SDS011;54319;52.038;4.640;2022-10-18T04:50:13;9.85;;;5.78;;
67456;SDS011;54319;52.038;4.640;2022-10-18T04:52:41;9.57;;;5.95;;
67456;SDS011;54319;52.038;4.640;2022-10-18T04:55:08;16.58;;;5.50;;
67456;SDS011;54319;52.038;4.640;2022-10-18T04:57:35;6.80;;;5.40;;
67456;SDS011;54319;52.038;4.640;2022-10-18T05:00:02;7.50;;;5.20;;
67456;SDS011;54319;52.038;4.640;2022-10-18T05:02:30;7.30;;;5.65;;
67456;SDS011;54319;52.038;4.640;2022-10-18T05:04:57;11.38;;;5.40;;
67456;SDS011;54319;52.038;4.640;2022-10-18T05:07:24;7.40;;;5.00;;
67456;SDS011;54319;52.038;4.640;2022-10-18T05:09:52;7.15;;;5.70;;
67456;SDS011;54319;52.038;4.640;2022-10-18T05:12:19;8.38;;;5.32;;
67456;SDS011;54319;52.038;4.640;2022-10-18T05:14:46;8.35;;;5.35;;
67456;SDS011;54319;52.038;4.640;2022-10-18T05:17:13;9.00;;;6.03;;
67456;SDS011;54319;52.038;4.640;2022-10-18T05:22:07;9.37;;;5.50;;
67456;SDS011;54319;52.038;4.640;2022-10-18T05:24:34;13.63;;;6.40;;
67456;SDS011;54319;52.038;4.640;2022-10-18T05:27:04;9.63;;;6.05;;
67456;SDS011;54319;52.038;4.640;2022-10-18T05:29:34;9.73;;;5.57;;
67456;SDS011;54319;52.038;4.640;2022-10-18T05:32:07;15.80;;;5.88;;
67456;SDS011;54319;52.038;4.640;2022-10-18T05:34:37;16.55;;;5.68;;
67456;SDS011;54319;52.038;4.640;2022-10-18T05:37:04;26.92;;;6.90;;
67456;SDS011;54319;52.038;4.640;2022-10-18T05:39:32;15.15;;;6.05;;
67456;SDS011;54319;52.038;4.640;2022-10-18T05:41:58;21.05;;;6.80;;
67456;SDS011;54319;52.038;4.640;2022-10-18T05:46:57;19.45;;;5.97;;
67456;SDS011;54319;52.038;4.640;2022-10-18T05:49:25;12.80;;;5.80;;
67456;SDS011;54319;52.038;4.640;2022-10-18T05:51:51;11.73;;;6.07;;
67456;SDS011;54319;52.038;4.640;2022-10-18T05:54:18;8.02;;;5.78;;
67456;SDS011;54319;52.038;4.640;2022-10-18T05:56:46;11.27;;;5.90;;
67456;SDS011;54319;52.038;4.640;2022-10-18T05:59:16;11.07;;;5.63;;
67456;SDS011;54319;52.038;4.640;2022-10-18T06:01:44;17.35;;;5.53;;
67456;SDS011;54319;52.038;4.640;2022-10-18T06:04:11;11.00;;;5.03;;
67456;SDS011;54319;52.038;4.640;2022-10-18T06:06:38;12.38;;;5.13;;
67456;SDS011;54319;52.038;4.640;2022-10-18T06:09:05;13.77;;;5.32;;
67456;SDS011;54319;52.038;4.640;2022-10-18T06:11:32;8.25;;;4.65;;
67456;SDS011;54319;52.038;4.640;2022-10-18T06:14:00;21.50;;;4.90;;
67456;SDS011;54319;52.038;4.640;2022-10-18T06:16:28;8.23;;;4.73;;
67456;SDS011;54319;52.038;4.640;2022-10-18T06:18:57;6.57;;;4.85;;
67456;SDS011;54319;52.038;4.640;2022-10-18T06:21:24;12.35;;;5.05;;
67456;SDS011;54319;52.038;4.640;2022-10-18T06:23:53;6.65;;;4.38;;
67456;SDS011;54319;52.038;4.640;2022-10-18T06:26:22;8.82;;;4.35;;
67456;SDS011;54319;52.038;4.640;2022-10-18T06:28:50;7.70;;;5.07;;
67456;SDS011;54319;52.038;4.640;2022-10-18T06:31:17;9.60;;;4.80;;
67456;SDS011;54319;52.038;4.640;2022-10-18T06:33:45;9.32;;;4.65;;
67456;SDS011;54319;52.038;4.640;2022-10-18T06:36:14;15.93;;;4.93;;
67456;SDS011;54319;52.038;4.640;2022-10-18T06:38:43;5.55;;;4.63;;
67456;SDS011;54319;52.038;4.640;2022-10-18T06:41:10;12.77;;;4.88;;
67456;SDS011;54319;52.038;4.640;2022-10-18T06:43:37;12.13;;;4.80;;
67456;SDS011;54319;52.038;4.640;2022-10-18T06:46:04;8.10;;;4.67;;
67456;SDS011;54319;52.038;4.640;2022-10-18T06:48:33;7.18;;;4.50;;
67456;SDS011;54319;52.038;4.640;2022-10-18T06:53:30;15.25;;;4.93;;
67456;SDS011;54319;52.038;4.640;2022-10-18T06:55:58;19.02;;;4.40;;
67456;SDS011;54319;52.038;4.640;2022-10-18T06:58:27;7.13;;;4.57;;
67456;SDS011;54319;52.038;4.640;2022-10-18T07:00:54;9.77;;;5.07;;
67456;SDS011;54319;52.038;4.640;2022-10-18T07:03:21;10.48;;;5.25;;
67456;SDS011;54319;52.038;4.640;2022-10-18T07:05:48;9.47;;;5.10;;
67456;SDS011;54319;52.038;4.640;2022-10-18T07:08:15;19.27;;;5.40;;
67456;SDS011;54319;52.038;4.640;2022-10-18T07:10:50;14.63;;;6.05;;
67456;SDS011;54319;52.038;4.640;2022-10-18T07:13:20;19.65;;;5.55;;
67456;SDS011;54319;52.038;4.640;2022-10-18T07:15:48;16.23;;;5.20;;
67456;SDS011;54319;52.038;4.640;2022-10-18T07:18:15;13.57;;;5.82;;
67456;SDS011;54319;52.038;4.640;2022-10-18T07:20:42;11.77;;;5.90;;
67456;SDS011;54319;52.038;4.640;2022-10-18T07:23:09;8.63;;;5.45;;
67456;SDS011;54319;52.038;4.640;2022-10-18T07:25:35;10.50;;;5.60;;
67456;SDS011;54319;52.038;4.640;2022-10-18T07:28:04;10.55;;;5.72;;
67456;SDS011;54319;52.038;4.640;2022-10-18T07:30:30;8.63;;;5.65;;
67456;SDS011;54319;52.038;4.640;2022-10-18T07:32:57;11.13;;;5.70;;
67456;SDS011;54319;52.038;4.640;2022-10-18T07:35:24;9.38;;;5.75;;
67456;SDS011;54319;52.038;4.640;2022-10-18T07:37:51;9.68;;;5.35;;
67456;SDS011;54319;52.038;4.640;2022-10-18T07:40:18;7.50;;;5.63;;
67456;SDS011;54319;52.038;4.640;2022-10-18T07:42:45;10.73;;;6.80;;
67456;SDS011;54319;52.038;4.640;2022-10-18T07:45:13;10.57;;;7.25;;
67456;SDS011;54319;52.038;4.640;2022-10-18T07:47:40;10.65;;;6.80;;
67456;SDS011;54319;52.038;4.640;2022-10-18T07:50:07;6.90;;;5.32;;
67456;SDS011;54319;52.038;4.640;2022-10-18T07:52:35;7.80;;;5.43;;
67456;SDS011;54319;52.038;4.640;2022-10-18T07:55:01;6.72;;;4.95;;
67456;SDS011;54319;52.038;4.640;2022-10-18T07:57:28;7.00;;;4.95;;
67456;SDS011;54319;52.038;4.640;2022-10-18T07:59:55;8.52;;;4.93;;
67456;SDS011;54319;52.038;4.640;2022-10-18T08:02:24;11.00;;;5.28;;
67456;SDS011;54319;52.038;4.640;2022-10-18T08:04:51;5.10;;;3.90;;
67456;SDS011;54319;52.038;4.640;2022-10-18T08:07:20;4.53;;;3.55;;
67456;SDS011;54319;52.038;4.640;2022-10-18T08:09:48;7.50;;;3.90;;
67456;SDS011;54319;52.038;4.640;2022-10-18T08:12:14;5.20;;;3.60;;
67456;SDS011;54319;52.038;4.640;2022-10-18T08:14:41;12.90;;;4.07;;
67456;SDS011;54319;52.038;4.640;2022-10-18T08:17:08;7.30;;;4.03;;
67456;SDS011;54319;52.038;4.640;2022-10-18T08:19:36;6.07;;;3.92;;
67456;SDS011;54319;52.038;4.640;2022-10-18T08:22:03;10.13;;;3.97;;
67456;SDS011;54319;52.038;4.640;2022-10-18T08:24:30;14.68;;;4.05;;
67456;SDS011;54319;52.038;4.640;2022-10-18T08:26:56;9.50;;;3.97;;
67456;SDS011;54319;52.038;4.640;2022-10-18T08:29:24;11.25;;;3.83;;
67456;SDS011;54319;52.038;4.640;2022-10-18T08:31:51;11.45;;;4.03;;
67456;SDS011;54319;52.038;4.640;2022-10-18T08:34:20;10.55;;;4.00;;
67456;SDS011;54319;52.038;4.640;2022-10-18T08:36:48;12.50;;;3.92;;
67456;SDS011;54319;52.038;4.640;2022-10-18T08:39:15;10.45;;;3.22;;
67456;SDS011;54319;52.038;4.640;2022-10-18T08:41:48;10.73;;;3.70;;
67456;SDS011;54319;52.038;4.640;2022-10-18T08:44:29;8.57;;;3.20;;
67456;SDS011;54319;52.038;4.640;2022-10-18T08:46:57;7.55;;;3.25;;
67456;SDS011;54319;52.038;4.640;2022-10-18T08:49:31;11.98;;;2.78;;
67456;SDS011;54319;52.038;4.640;2022-10-18T08:52:05;8.05;;;2.35;;
67456;SDS011;54319;52.038;4.640;2022-10-18T08:54:42;10.65;;;2.28;;
67456;SDS011;54319;52.038;4.640;2022-10-18T08:57:19;5.35;;;2.17;;
67456;SDS011;54319;52.038;4.640;2022-10-18T08:59:47;9.27;;;2.10;;
67456;SDS011;54319;52.038;4.640;2022-10-18T09:02:19;13.30;;;2.08;;
67456;SDS011;54319;52.038;4.640;2022-10-18T09:05:02;4.68;;;1.65;;
67456;SDS011;54319;52.038;4.640;2022-10-18T09:07:58;7.35;;;2.25;;
67456;SDS011;54319;52.038;4.640;2022-10-18T09:10:41;7.57;;;1.98;;
67456;SDS011;54319;52.038;4.640;2022-10-18T09:13:20;9.18;;;1.60;;
67456;SDS011;54319;52.038;4.640;2022-10-18T09:16:01;7.00;;;1.60;;
67456;SDS011;54319;52.038;4.640;2022-10-18T09:18:37;7.72;;;2.17;;
67456;SDS011;54319;52.038;4.640;2022-10-18T09:21:17;5.88;;;1.73;;
67456;SDS011;54319;52.038;4.640;2022-10-18T09:23:48;9.48;;;2.17;;
67456;SDS011;54319;52.038;4.640;2022-10-18T09:26:19;3.30;;;1.30;;
67456;SDS011;54319;52.038;4.640;2022-10-18T09:28:58;6.13;;;1.27;;
67456;SDS011;54319;52.038;4.640;2022-10-18T09:31:36;4.82;;;1.50;;
67456;SDS011;54319;52.038;4.640;2022-10-18T09:34:13;4.55;;;1.60;;
67456;SDS011;54319;52.038;4.640;2022-10-18T09:36:52;7.47;;;1.25;;
67456;SDS011;54319;52.038;4.640;2022-10-18T09:39:22;7.43;;;1.30;;
67456;SDS011;54319;52.038;4.640;2022-10-18T09:41:54;4.95;;;1.13;;
67456;SDS011;54319;52.038;4.640;2022-10-18T09:44:26;10.00;;;1.35;;
67456;SDS011;54319;52.038;4.640;2022-10-18T09:46:56;5.90;;;1.10;;
67456;SDS011;54319;52.038;4.640;2022-10-18T09:49:28;5.43;;;1.20;;
67456;SDS011;54319;52.038;4.640;2022-10-18T09:51:58;4.47;;;1.05;;
67456;SDS011;54319;52.038;4.640;2022-10-18T09:54:31;5.63;;;1.30;;
67456;SDS011;54319;52.038;4.640;2022-10-18T09:57:03;6.72;;;1.45;;
67456;SDS011;54319;52.038;4.640;2022-10-18T09:59:36;9.20;;;1.40;;
67456;SDS011;54319;52.038;4.640;2022-10-18T10:02:05;8.35;;;1.30;;
67456;SDS011;54319;52.038;4.640;2022-10-18T10:04:38;2.78;;;0.93;;
67456;SDS011;54319;52.038;4.640;2022-10-18T10:07:06;5.93;;;1.60;;
67456;SDS011;54319;52.038;4.640;2022-10-18T10:09:38;5.78;;;1.65;;
67456;SDS011;54319;52.038;4.640;2022-10-18T10:12:22;3.42;;;0.98;;
67456;SDS011;54319;52.038;4.640;2022-10-18T10:14:51;9.57;;;1.52;;
67456;SDS011;54319;52.038;4.640;2022-10-18T10:17:20;5.00;;;1.45;;
67456;SDS011;54319;52.038;4.640;2022-10-18T10:19:56;6.05;;;1.50;;
67456;SDS011;54319;52.038;4.640;2022-10-18T10:22:30;4.25;;;1.13;;
67456;SDS011;54319;52.038;4.640;2022-10-18T10:25:02;5.22;;;1.20;;
67456;SDS011;54319;52.038;4.640;2022-10-18T10:27:32;7.93;;;1.40;;
67456;SDS011;54319;52.038;4.640;2022-10-18T10:30:20;6.85;;;1.20;;
67456;SDS011;54319;52.038;4.640;2022-10-18T10:32:50;5.07;;;1.15;;
67456;SDS011;54319;52.038;4.640;2022-10-18T10:35:19;5.60;;;1.50;;
67456;SDS011;54319;52.038;4.640;2022-10-18T10:37:52;5.93;;;1.60;;
67456;SDS011;54319;52.038;4.640;2022-10-18T10:40:21;4.32;;;1.38;;
67456;SDS011;54319;52.038;4.640;2022-10-18T10:42:51;6.90;;;1.27;;
67456;SDS011;54319;52.038;4.640;2022-10-18T10:45:38;7.13;;;1.48;;
67456;SDS011;54319;52.038;4.640;2022-10-18T10:48:12;6.20;;;1.08;;
67456;SDS011;54319;52.038;4.640;2022-10-18T10:50:51;9.25;;;1.40;;
67456;SDS011;54319;52.038;4.640;2022-10-18T10:53:28;4.20;;;1.23;;
67456;SDS011;54319;52.038;4.640;2022-10-18T10:55:58;5.87;;;1.53;;
67456;SDS011;54319;52.038;4.640;2022-10-18T10:58:26;6.20;;;1.27;;
67456;SDS011;54319;52.038;4.640;2022-10-18T11:01:02;4.97;;;1.00;;
67456;SDS011;54319;52.038;4.640;2022-10-18T11:03:44;6.35;;;1.42;;
67456;SDS011;54319;52.038;4.640;2022-10-18T11:06:20;8.90;;;1.10;;
67456;SDS011;54319;52.038;4.640;2022-10-18T11:08:58;5.57;;;1.27;;
67456;SDS011;54319;52.038;4.640;2022-10-18T11:11:31;4.95;;;1.02;;
67456;SDS011;54319;52.038;4.640;2022-10-18T11:14:03;3.95;;;1.15;;
67456;SDS011;54319;52.038;4.640;2022-10-18T11:16:39;5.68;;;1.15;;
67456;SDS011;54319;52.038;4.640;2022-10-18T11:19:23;2.42;;;0.98;;
67456;SDS011;54319;52.038;4.640;2022-10-18T11:21:57;3.47;;;0.90;;
67456;SDS011;54319;52.038;4.640;2022-10-18T11:24:27;5.82;;;1.00;;
67456;SDS011;54319;52.038;4.640;2022-10-18T11:26:56;4.97;;;1.08;;
67456;SDS011;54319;52.038;4.640;2022-10-18T11:29:32;8.23;;;1.50;;
67456;SDS011;54319;52.038;4.640;2022-10-18T11:32:10;7.03;;;1.30;;
67456;SDS011;54319;52.038;4.640;2022-10-18T11:34:53;4.60;;;1.00;;
67456;SDS011;54319;52.038;4.640;2022-10-18T11:37:36;5.40;;;1.00;;
67456;SDS011;54319;52.038;4.640;2022-10-18T11:40:30;4.82;;;1.10;;
67456;SDS011;54319;52.038;4.640;2022-10-18T11:43:10;3.88;;;1.00;;
67456;SDS011;54319;52.038;4.640;2022-10-18T11:45:45;5.15;;;0.98;;
67456;SDS011;54319;52.038;4.640;2022-10-18T11:51:20;3.63;;;0.90;;
67456;SDS011;54319;52.038;4.640;2022-10-18T11:53:57;5.72;;;1.10;;
67456;SDS011;54319;52.038;4.640;2022-10-18T11:56:33;3.35;;;0.93;;
67456;SDS011;54319;52.038;4.640;2022-10-18T11:59:15;7.63;;;1.33;;
67456;SDS011;54319;52.038;4.640;2022-10-18T12:01:56;4.55;;;1.00;;
67456;SDS011;54319;52.038;4.640;2022-10-18T12:04:31;6.40;;;1.45;;
67456;SDS011;54319;52.038;4.640;2022-10-18T12:07:00;3.38;;;1.00;;
67456;SDS011;54319;52.038;4.640;2022-10-18T12:09:35;2.92;;;1.00;;
67456;SDS011;54319;52.038;4.640;2022-10-18T12:12:06;5.05;;;0.82;;
67456;SDS011;54319;52.038;4.640;2022-10-18T12:14:42;2.97;;;0.98;;
67456;SDS011;54319;52.038;4.640;2022-10-18T12:17:15;4.75;;;0.90;;
67456;SDS011;54319;52.038;4.640;2022-10-18T12:19:48;2.45;;;0.80;;
67456;SDS011;54319;52.038;4.640;2022-10-18T12:22:20;3.35;;;0.80;;
67456;SDS011;54319;52.038;4.640;2022-10-18T12:24:51;4.88;;;0.65;;
67456;SDS011;54319;52.038;4.640;2022-10-18T12:27:18;2.92;;;0.77;;
67456;SDS011;54319;52.038;4.640;2022-10-18T12:29:56;2.57;;;0.80;;
67456;SDS011;54319;52.038;4.640;2022-10-18T12:32:34;2.03;;;0.60;;
67456;SDS011;54319;52.038;4.640;2022-10-18T12:35:05;7.20;;;1.27;;
67456;SDS011;54319;52.038;4.640;2022-10-18T12:40:40;7.28;;;0.90;;
67456;SDS011;54319;52.038;4.640;2022-10-18T12:43:16;3.83;;;0.60;;
67456;SDS011;54319;52.038;4.640;2022-10-18T12:45:51;5.25;;;0.70;;
67456;SDS011;54319;52.038;4.640;2022-10-18T12:48:33;5.20;;;1.00;;
67456;SDS011;54319;52.038;4.640;2022-10-18T12:51:06;3.92;;;1.30;;
67456;SDS011;54319;52.038;4.640;2022-10-18T12:53:40;2.58;;;0.90;;
67456;SDS011;54319;52.038;4.640;2022-10-18T13:02:22;7.22;;;1.20;;
67456;SDS011;54319;52.038;4.640;2022-10-18T13:04:54;5.20;;;0.95;;
67456;SDS011;54319;52.038;4.640;2022-10-18T13:13:07;6.22;;;1.15;;
67456;SDS011;54319;52.038;4.640;2022-10-18T13:15:52;2.72;;;0.80;;
67456;SDS011;54319;52.038;4.640;2022-10-18T13:18:32;1.38;;;0.70;;
67456;SDS011;54319;52.038;4.640;2022-10-18T13:21:15;3.67;;;0.85;;
67456;SDS011;54319;52.038;4.640;2022-10-18T13:23:56;3.13;;;0.80;;
67456;SDS011;54319;52.038;4.640;2022-10-18T13:26:35;4.05;;;0.80;;
67456;SDS011;54319;52.038;4.640;2022-10-18T13:29:21;3.30;;;0.90;;
67456;SDS011;54319;52.038;4.640;2022-10-18T13:32:06;3.15;;;1.02;;
67456;SDS011;54319;52.038;4.640;2022-10-18T13:34:50;6.45;;;0.82;;
67456;SDS011;54319;52.038;4.640;2022-10-18T13:37:18;2.42;;;0.50;;
67456;SDS011;54319;52.038;4.640;2022-10-18T13:42:47;5.15;;;0.85;;
67456;SDS011;54319;52.038;4.640;2022-10-18T13:54:25;6.97;;;1.13;;
67456;SDS011;54319;52.038;4.640;2022-10-18T13:57:09;3.97;;;1.08;;
67456;SDS011;54319;52.038;4.640;2022-10-18T13:59:50;5.75;;;0.85;;
67456;SDS011;54319;52.038;4.640;2022-10-18T14:05:44;2.97;;;0.85;;
67456;SDS011;54319;52.038;4.640;2022-10-18T14:08:18;5.22;;;0.88;;
67456;SDS011;54319;52.038;4.640;2022-10-18T14:10:51;6.35;;;1.17;;
67456;SDS011;54319;52.038;4.640;2022-10-18T14:13:30;5.38;;;0.88;;
67456;SDS011;54319;52.038;4.640;2022-10-18T14:16:04;5.47;;;0.85;;
67456;SDS011;54319;52.038;4.640;2022-10-18T14:18:37;2.92;;;0.82;;
67456;SDS011;54319;52.038;4.640;2022-10-18T14:21:11;4.50;;;0.90;;
67456;SDS011;54319;52.038;4.640;2022-10-18T14:23:44;5.43;;;1.27;;
67456;SDS011;54319;52.038;4.640;2022-10-18T14:28:41;1.52;;;0.80;;
67456;SDS011;54319;52.038;4.640;2022-10-18T14:31:10;3.35;;;1.48;;
67456;SDS011;54319;52.038;4.640;2022-10-18T14:33:46;4.07;;;1.35;;
67456;SDS011;54319;52.038;4.640;2022-10-18T14:36:21;3.63;;;0.77;;
67456;SDS011;54319;52.038;4.640;2022-10-18T14:38:50;2.65;;;0.90;;
67456;SDS011;54319;52.038;4.640;2022-10-18T14:41:28;7.05;;;1.00;;
67456;SDS011;54319;52.038;4.640;2022-10-18T14:44:10;6.43;;;1.08;;
67456;SDS011;54319;52.038;4.640;2022-10-18T14:46:44;10.05;;;1.45;;
67456;SDS011;54319;52.038;4.640;2022-10-18T14:49:12;3.90;;;1.02;;
67456;SDS011;54319;52.038;4.640;2022-10-18T14:51:44;6.10;;;1.00;;
67456;SDS011;54319;52.038;4.640;2022-10-18T14:54:13;5.72;;;1.23;;
67456;SDS011;54319;52.038;4.640;2022-10-18T14:56:44;5.68;;;1.20;;
67456;SDS011;54319;52.038;4.640;2022-10-18T14:59:14;6.07;;;1.38;;
67456;SDS011;54319;52.038;4.640;2022-10-18T15:01:51;6.95;;;1.55;;
67456;SDS011;54319;52.038;4.640;2022-10-18T15:04:22;4.32;;;1.13;;
67456;SDS011;54319;52.038;4.640;2022-10-18T15:06:55;4.95;;;1.10;;
67456;SDS011;54319;52.038;4.640;2022-10-18T15:09:22;7.53;;;0.98;;
67456;SDS011;54319;52.038;4.640;2022-10-18T15:11:54;4.40;;;1.10;;
67456;SDS011;54319;52.038;4.640;2022-10-18T15:14:32;3.70;;;1.10;;
67456;SDS011;54319;52.038;4.640;2022-10-18T15:17:01;5.78;;;1.30;;
67456;SDS011;54319;52.038;4.640;2022-10-18T15:19:33;4.55;;;1.20;;
67456;SDS011;54319;52.038;4.640;2022-10-18T15:22:04;6.13;;;1.10;;
67456;SDS011;54319;52.038;4.640;2022-10-18T15:24:33;3.75;;;1.00;;
67456;SDS011;54319;52.038;4.640;2022-10-18T15:27:09;4.88;;;1.20;;
67456;SDS011;54319;52.038;4.640;2022-10-18T15:29:39;5.40;;;1.70;;
67456;SDS011;54319;52.038;4.640;2022-10-18T15:32:13;5.55;;;1.95;;
67456;SDS011;54319;52.038;4.640;2022-10-18T15:34:43;4.30;;;1.17;;
67456;SDS011;54319;52.038;4.640;2022-10-18T15:37:17;7.43;;;1.20;;
67456;SDS011;54319;52.038;4.640;2022-10-18T15:42:45;4.40;;;1.20;;
67456;SDS011;54319;52.038;4.640;2022-10-18T15:45:28;6.90;;;1.13;;
67456;SDS011;54319;52.038;4.640;2022-10-18T15:48:16;4.75;;;1.13;;
67456;SDS011;54319;52.038;4.640;2022-10-18T15:50:47;5.38;;;1.20;;
67456;SDS011;54319;52.038;4.640;2022-10-18T15:53:22;3.97;;;0.95;;
67456;SDS011;54319;52.038;4.640;2022-10-18T15:56:04;4.95;;;1.08;;
67456;SDS011;54319;52.038;4.640;2022-10-18T15:58:38;4.72;;;1.10;;
67456;SDS011;54319;52.038;4.640;2022-10-18T16:01:13;4.75;;;1.05;;
67456;SDS011;54319;52.038;4.640;2022-10-18T16:03:42;8.75;;;1.83;;
67456;SDS011;54319;52.038;4.640;2022-10-18T16:06:12;11.30;;;1.70;;
67456;SDS011;54319;52.038;4.640;2022-10-18T16:08:42;9.45;;;1.30;;